Ashwood, Oregon
Current Conditions -  °F | °C
As of 11:55 PM on Thursday 23 Oct 2014 (Local Time) from KS39 Reporting Station
Scattered Clouds Scattered Clouds  
Wind Chill: 46°   Ceiling: Unl
Heat Index: 48°   Visibility: 10mi
Dew Point: 43°   Wind: 6mph
Humidity: 82%   Direction: 150°SSE
Pressure: 30.02"   Gusts: NA
Location:  44.73°N, 120.76°W
Report Text: KS39 240655Z AUTO 15005KT 10SM SCT060 SCT085 09/06 A3002 RMK AO2
Loading
Personal Weather Stations






























Interactive Weather Map
Tropical Storm Tracking
New forecast layout! Learn more

10-Day Weather Forecast

Advertisements
Track Severe Weather on mobile